Time;durP1;ratioP1;P1;durP2;ratioP2;P2;SDS_P1;SDS_P2;PMS_P1;PMS_P2;Temp;Humidity;BMP_temperature;BMP_pressure;BME280_temperature;BME280_humidity;BME280_pressure;Samples;Min_cycle;Max_cycle;Signal;HPM_P1;HPM_P2
2023/07/25 00:00:29;;;;;;;1999.90;999.90;;;;;;;22.91;44.60;100807.47;5054090;28;20101;-70
2023/07/25 00:02:54;;;;;;;1999.90;999.90;;;;;;;23.15;44.61;100802.44;5063868;28;20449;-71
2023/07/25 00:05:19;;;;;;;1999.90;999.90;;;;;;;22.66;45.14;100810.81;5049988;28;20025;-70
2023/07/25 00:07:45;;;;;;;1999.90;999.90;;;;;;;22.56;45.85;100810.50;5040421;28;20032;-71
2023/07/25 00:10:10;;;;;;;1999.90;999.90;;;;;;;22.76;45.15;100809.25;5062163;28;20025;-71
2023/07/25 00:12:37;;;;;;;1999.90;999.90;;;;;;;22.86;44.90;100807.75;5038079;28;20538;-71
2023/07/25 00:15:03;;;;;;;1999.90;999.90;;;;;;;22.72;45.16;100807.75;5043102;28;20024;-70
2023/07/25 00:17:29;;;;;;;1999.90;999.90;;;;;;;23.08;44.69;100810.88;5052700;28;20039;-71
2023/07/25 00:19:54;;;;;;;1999.90;999.90;;;;;;;22.66;45.04;100805.47;5051921;28;20036;-71
2023/07/25 00:22:19;;;;;;;1999.90;999.90;;;;;;;22.96;44.86;100807.19;5053516;28;20067;-71
2023/07/25 00:24:45;;;;;;;1999.90;999.90;;;;;;;22.68;44.70;100803.56;5047855;28;20111;-71
2023/07/25 00:27:10;;;;;;;1999.90;999.90;;;;;;;22.47;45.67;100795.09;5045024;28;20123;-71
2023/07/25 00:29:36;;;;;;;1999.90;999.90;;;;;;;22.72;44.79;100799.75;5052754;28;20085;-70
2023/07/25 00:32:01;;;;;;;1999.90;999.90;;;;;;;22.74;45.08;100794.31;5053119;28;20503;-71
2023/07/25 00:34:27;;;;;;;1999.90;999.90;;;;;;;22.80;45.35;100792.13;5049299;28;20029;-71
2023/07/25 00:36:53;;;;;;;1999.90;999.90;;;;;;;22.81;44.91;100788.53;5053083;28;20035;-71
2023/07/25 00:39:18;;;;;;;1999.90;999.90;;;;;;;22.85;44.80;100795.38;5050115;28;20028;-71
2023/07/25 00:41:43;;;;;;;1999.90;999.90;;;;;;;22.90;44.69;100787.09;5046128;28;20039;-71
2023/07/25 00:44:09;;;;;;;1999.90;999.90;;;;;;;22.74;45.31;100789.88;5039140;28;20059;-71
2023/07/25 00:46:37;;;;;;;1999.90;999.90;;;;;;;22.73;44.95;100789.97;5067736;28;20043;-71
2023/07/25 00:49:04;;;;;;;1999.90;999.90;;;;;;;22.81;44.73;100782.34;5037759;28;20032;-70
2023/07/25 00:51:30;;;;;;;1999.90;999.90;;;;;;;22.85;44.84;100790.06;5051929;28;20040;-71
2023/07/25 00:53:56;;;;;;;1999.90;999.90;;;;;;;23.27;44.19;100787.44;5051065;28;20472;-71
2023/07/25 00:56:21;;;;;;;1999.90;999.90;;;;;;;22.82;44.83;100795.59;5058911;28;20086;-70
2023/07/25 00:58:47;;;;;;;1999.90;999.90;;;;;;;22.63;44.88;100789.69;5085591;28;20408;-72
2023/07/25 01:01:12;;;;;;;1999.90;999.90;;;;;;;22.45;45.54;100796.97;5073688;28;20397;-71
2023/07/25 01:03:39;;;;;;;1999.90;999.90;;;;;;;22.98;44.58;100786.63;5087060;28;20548;-71
2023/07/25 01:06:08;;;;;;;1999.90;999.90;;;;;;;22.86;44.88;100797.09;5085355;28;20027;-71
2023/07/25 01:08:50;;;;;;;1999.90;999.90;;;;;;;22.74;45.47;100795.19;5079265;28;20032;-70
2023/07/25 01:11:15;;;;;;;1999.90;999.90;;;;;;;22.56;45.99;100788.31;5081769;28;20032;-70
2023/07/25 01:13:41;;;;;;;1999.90;999.90;;;;;;;22.65;45.88;100787.78;5082050;28;20032;-71
2023/07/25 01:16:10;;;;;;;1999.90;999.90;;;;;;;22.10;45.78;100775.97;5067935;28;20032;-71
2023/07/25 01:18:36;;;;;;;1999.90;999.90;;;;;;;22.58;45.70;100786.44;5080944;28;20029;-70
2023/07/25 01:21:02;;;;;;;1999.90;999.90;;;;;;;22.05;46.44;100784.22;5073601;28;20119;-70
2023/07/25 01:23:28;;;;;;;1999.90;999.90;;;;;;;22.64;45.75;100780.72;5079404;28;20058;-70
2023/07/25 01:25:54;;;;;;;1999.90;999.90;;;;;;;22.33;45.73;100782.56;5090382;28;20502;-71
2023/07/25 01:28:19;;;;;;;1999.90;999.90;;;;;;;;;;5074550;28;20051;-70
2023/07/25 01:30:45;;;;;;;1999.90;999.90;;;;;;;22.48;45.79;100775.50;5072190;28;20032;-71
2023/07/25 01:33:10;;;;;;;1999.90;999.90;;;;;;;22.39;45.47;100768.91;5073028;28;20024;-71
2023/07/25 01:35:35;;;;;;;1999.90;999.90;;;;;;;22.30;45.50;100772.13;5088303;28;20036;-70
2023/07/25 01:38:01;;;;;;;1999.90;999.90;;;;;;;22.74;44.84;100771.22;5088647;28;20024;-71
2023/07/25 01:40:26;;;;;;;1999.90;999.90;;;;;;;22.37;45.96;100776.16;5087884;28;20028;-71
2023/07/25 01:42:52;;;;;;;1999.90;999.90;;;;;;;22.47;45.96;100774.63;5083247;28;20028;-71
2023/07/25 01:45:17;;;;;;;1999.90;999.90;;;;;;;22.40;46.00;100773.28;5079327;28;20473;-71
2023/07/25 01:47:42;;;;;;;1999.90;999.90;;;;;;;22.41;45.80;100780.34;5075213;28;20476;-71
2023/07/25 01:50:08;;;;;;;1999.90;999.90;;;;;;;22.23;46.41;100776.06;5082457;28;20819;-71
2023/07/25 01:52:34;;;;;;;1999.90;999.90;;;;;;;22.24;46.01;100770.66;5072604;28;20051;-71
2023/07/25 01:55:00;;;;;;;1999.90;999.90;;;;;;;22.75;45.08;100772.06;5077889;28;20488;-71
2023/07/25 01:57:25;;;;;;;1999.90;999.90;;;;;;;22.57;45.04;100768.75;5048410;28;20583;-71
2023/07/25 01:59:51;;;;;;;1999.90;999.90;;;;;;;22.35;46.36;100767.38;5038298;28;20064;-71
2023/07/25 02:02:17;;;;;;;1999.90;999.90;;;;;;;22.67;46.01;100772.56;5043423;28;20032;-71
2023/07/25 02:04:42;;;;;;;1999.90;999.90;;;;;;;22.72;45.33;100766.94;5043529;28;20032;-71
2023/07/25 02:07:07;;;;;;;1999.90;999.90;;;;;;;22.48;45.11;100760.38;5048059;28;20027;-71
2023/07/25 02:09:36;;;;;;;1999.90;999.90;;;;;;;22.26;45.79;100760.78;5047260;28;20058;-71
2023/07/25 02:12:02;;;;;;;1999.90;999.90;;;;;;;22.55;45.28;100757.34;5049858;28;20028;-71
2023/07/25 02:14:30;;;;;;;1999.90;999.90;;;;;;;22.55;45.24;100760.84;5064868;28;20036;-70
2023/07/25 02:16:56;;;;;;;1999.90;999.90;;;;;;;22.33;46.33;100759.47;5049672;28;20028;-71
2023/07/25 02:19:21;;;;;;;1999.90;999.90;;;;;;;22.70;44.70;100764.38;5061465;28;20534;-71
2023/07/25 02:21:46;;;;;;;1999.90;999.90;;;;;;;22.63;45.01;100765.72;5042443;28;20253;-71
2023/07/25 02:24:12;;;;;;;1999.90;999.90;;;;;;;22.51;45.56;100765.50;5042009;28;20029;-71
2023/07/25 02:26:38;;;;;;;1999.90;999.90;;;;;;;22.49;45.92;100770.06;5036958;28;20499;-71
2023/07/25 02:29:03;;;;;;;1999.90;999.90;;;;;;;22.50;46.38;100766.47;5041282;28;20426;-71
2023/07/25 02:31:29;;;;;;;1999.90;999.90;;;;;;;22.84;45.22;100769.69;5040473;28;20028;-71
2023/07/25 02:33:54;;;;;;;1999.90;999.90;;;;;;;22.68;46.16;100771.59;5044614;28;20033;-71
2023/07/25 02:36:20;;;;;;;1999.90;999.90;;;;;;;22.68;46.72;100771.59;5031950;28;20028;-71
2023/07/25 02:38:45;;;;;;;1999.90;999.90;;;;;;;22.48;46.22;100760.38;5037846;28;20544;-71
2023/07/25 02:41:10;;;;;;;1999.90;999.90;;;;;;;22.76;45.96;100761.31;5037707;28;20032;-70
2023/07/25 02:43:36;;;;;;;1999.90;999.90;;;;;;;22.86;45.84;100754.47;5050232;28;20032;-71
2023/07/25 02:46:01;;;;;;;1999.90;999.90;;;;;;;23.08;45.40;100757.56;5046784;28;20028;-72
2023/07/25 02:48:30;;;;;;;1999.90;999.90;;;;;;;23.04;45.61;100757.78;5039513;28;20074;-71
2023/07/25 02:50:55;;;;;;;1999.90;999.90;;;;;;;23.29;45.34;100760.72;5046337;28;20033;-71
2023/07/25 02:53:20;;;;;;;1999.90;999.90;;;;;;;22.73;45.51;100764.19;5034660;28;20439;-71
2023/07/25 02:55:46;;;;;;;1999.90;999.90;;;;;;;23.32;45.17;100756.03;5059640;28;20042;-71
2023/07/25 02:58:12;;;;;;;1999.90;999.90;;;;;;;23.33;44.66;100763.06;5045777;28;20029;-71
2023/07/25 03:00:38;;;;;;;1999.90;999.90;;;;;;;23.01;45.47;100765.09;5035543;28;20064;-71
2023/07/25 03:03:03;;;;;;;1999.90;999.90;;;;;;;23.53;44.22;100759.13;5043951;28;20056;-71
2023/07/25 03:05:29;;;;;;;1999.90;999.90;;;;;;;23.45;44.59;100761.44;5050615;28;20036;-71
2023/07/25 03:07:56;;;;;;;1999.90;999.90;;;;;;;23.60;44.24;100759.53;5060267;28;20533;-70
2023/07/25 03:10:22;;;;;;;1999.90;999.90;;;;;;;23.73;44.16;100762.28;5039268;28;20485;-71
2023/07/25 03:12:47;;;;;;;1999.90;999.90;;;;;;;23.84;44.25;100759.72;5060784;28;20047;-71
2023/07/25 03:15:13;;;;;;;1999.90;999.90;;;;;;;24.02;43.49;100757.66;5044461;28;20035;-71
2023/07/25 03:17:38;;;;;;;1999.90;999.90;;;;;;;23.63;44.59;100758.47;5045485;28;20499;-71
2023/07/25 03:20:05;;;;;;;1999.90;999.90;;;;;;;23.26;44.88;100755.56;5056971;28;20040;-71
2023/07/25 03:22:31;;;;;;;1999.90;999.90;;;;;;;23.40;44.78;100752.00;5049084;28;20036;-71
2023/07/25 03:24:56;;;;;;;1999.90;999.90;;;;;;;23.77;44.46;100750.44;5044724;28;20093;-71
2023/07/25 03:27:22;;;;;;;1999.90;999.90;;;;;;;23.79;44.17;100753.84;5036030;28;20029;-71
2023/07/25 03:29:47;;;;;;;1999.90;999.90;;;;;;;23.74;44.38;100755.97;5035973;28;20040;-71
2023/07/25 03:32:13;;;;;;;1999.90;999.90;;;;;;;23.26;45.51;100755.56;5059849;28;20041;-71
2023/07/25 03:34:38;;;;;;;1999.90;999.90;;;;;;;23.71;44.75;100761.50;5039103;28;20056;-71
2023/07/25 03:37:04;;;;;;;1999.90;999.90;;;;;;;23.52;45.05;100752.06;5034687;28;20072;-71
2023/07/25 03:39:29;;;;;;;1999.90;999.90;;;;;;;23.55;44.90;100756.34;5038060;28;20114;-71
2023/07/25 03:41:55;;;;;;;1999.90;999.90;;;;;;;23.95;43.93;100751.03;5047225;28;20078;-71
2023/07/25 03:44:20;;;;;;;1999.90;999.90;;;;;;;23.58;45.29;100749.97;5039467;28;20028;-71
2023/07/25 03:46:46;;;;;;;1999.90;999.90;;;;;;;23.50;45.09;100753.13;5041725;28;20017;-71
2023/07/25 03:49:12;;;;;;;1999.90;999.90;;;;;;;23.53;44.83;100756.44;5055105;28;20546;-71
2023/07/25 03:51:38;;;;;;;1999.90;999.90;;;;;;;23.25;45.69;100757.38;5061270;28;20431;-72
2023/07/25 03:54:05;;;;;;;1999.90;999.90;;;;;;;23.20;46.43;100756.81;5038751;28;20025;-71
2023/07/25 03:56:31;;;;;;;1999.90;999.90;;;;;;;23.63;45.06;100755.81;5061445;28;20137;-71
2023/07/25 03:58:56;;;;;;;1999.90;999.90;;;;;;;23.08;45.82;100761.13;5067247;28;20115;-71
2023/07/25 04:01:21;;;;;;;1999.90;999.90;;;;;;;23.45;45.70;100752.56;5044362;28;20444;-71
2023/07/25 04:03:47;;;;;;;1999.90;999.90;;;;;;;23.21;46.24;100743.38;5052756;28;20114;-71
2023/07/25 04:06:12;;;;;;;1999.90;999.90;;;;;;;22.61;47.56;100762.28;5046923;28;20039;-71
2023/07/25 04:08:38;;;;;;;1999.90;999.90;;;;;;;22.80;47.47;100760.16;5038223;28;20024;-71
2023/07/25 04:11:03;;;;;;;1999.90;999.90;;;;;;;22.62;47.75;100766.66;5061281;28;20036;-71
2023/07/25 04:13:29;;;;;;;1999.90;999.90;;;;;;;22.98;47.30;100762.63;5049255;28;20132;-71
2023/07/25 04:15:54;;;;;;;1999.90;999.90;;;;;;;23.34;46.12;100763.91;5046666;28;20076;-71
2023/07/25 04:18:20;;;;;;;1999.90;999.90;;;;;;;22.92;47.49;100769.22;5039058;28;20024;-71
2023/07/25 04:20:45;;;;;;;1999.90;999.90;;;;;;;22.75;48.09;100767.63;5042184;28;20033;-71
2023/07/25 04:23:10;;;;;;;1999.90;999.90;;;;;;;22.90;47.92;100764.94;5042799;28;20377;-71
2023/07/25 04:25:36;;;;;;;1999.90;999.90;;;;;;;22.84;47.79;100761.69;5055188;28;20179;-71
2023/07/25 04:28:02;;;;;;;1999.90;999.90;;;;;;;22.53;48.45;100779.59;5046666;28;20044;-71
2023/07/25 04:30:30;;;;;;;1999.90;999.90;;;;;;;22.49;49.09;100767.41;5042575;28;20149;-70
2023/07/25 04:32:55;;;;;;;1999.90;999.90;;;;;;;23.03;47.70;100765.88;5050155;28;20056;-72
2023/07/25 04:35:21;;;;;;;1999.90;999.90;;;;;;;22.94;48.13;100761.97;5042553;28;20141;-71
2023/07/25 04:37:46;;;;;;;1999.90;999.90;;;;;;;22.94;48.20;100772.63;5045792;28;20261;-71
2023/07/25 04:40:13;;;;;;;1999.90;999.90;;;;;;;22.63;49.04;100776.38;5064615;28;20049;-71
2023/07/25 04:42:38;;;;;;;1999.90;999.90;;;;;;;22.94;48.06;100771.78;5051625;28;20159;-71
2023/07/25 04:45:04;;;;;;;1999.90;999.90;;;;;;;22.63;48.43;100779.03;5047859;28;20032;-71
2023/07/25 04:47:30;;;;;;;1999.90;999.90;;;;;;;22.88;47.98;100771.19;5052568;28;20059;-71
2023/07/25 04:49:55;;;;;;;1999.90;999.90;;;;;;;23.42;47.05;100776.78;5049521;28;20068;-71
2023/07/25 04:52:21;;;;;;;1999.90;999.90;;;;;;;23.83;46.19;100782.03;5048897;28;20073;-71
2023/07/25 04:54:46;;;;;;;1999.90;999.90;;;;;;;23.85;45.94;100788.13;5031680;28;20469;-71
2023/07/25 04:57:11;;;;;;;1999.90;999.90;;;;;;;23.38;46.79;100784.09;5051043;28;20451;-71
2023/07/25 04:59:37;;;;;;;1999.90;999.90;;;;;;;23.15;46.94;100781.13;5040954;28;20611;-70
2023/07/25 05:02:02;;;;;;;1999.90;999.90;;;;;;;22.28;48.29;100780.16;5032169;28;20021;-71
2023/07/25 05:04:28;;;;;;;1999.90;999.90;;;;;;;22.49;47.84;100778.06;5050387;28;20029;-70
2023/07/25 05:06:54;;;;;;;1999.90;999.90;;;;;;;22.73;47.29;100782.81;5040308;28;20481;-69
2023/07/25 05:09:20;;;;;;;1999.90;999.90;;;;;;;23.40;45.75;100787.53;5038906;28;20032;-71
2023/07/25 05:11:50;;;;;;;1999.90;999.90;;;;;;;23.46;45.75;100794.28;5051170;28;20166;-71
2023/07/25 05:14:16;;;;;;;1999.90;999.90;;;;;;;23.18;45.47;100786.25;5043092;28;20037;-71
2023/07/25 05:16:42;;;;;;;1999.90;999.90;;;;;;;23.20;45.14;100789.69;5064063;28;20039;-72
2023/07/25 05:19:07;;;;;;;1999.90;999.90;;;;;;;23.88;44.74;100790.63;5052466;28;20024;-71
2023/07/25 05:21:32;;;;;;;1999.90;999.90;;;;;;;24.18;44.11;100786.84;5063675;28;20040;-70
2023/07/25 05:23:58;;;;;;;1999.90;999.90;;;;;;;24.23;44.43;100791.88;5050421;28;20465;-70
2023/07/25 05:26:23;;;;;;;1999.90;999.90;;;;;;;24.17;44.72;100793.16;5032568;28;20079;-71
2023/07/25 05:28:49;;;;;;;1999.90;999.90;;;;;;;23.78;45.75;100789.50;5047863;28;20059;-71
2023/07/25 05:31:14;;;;;;;1999.90;999.90;;;;;;;24.07;45.10;100797.41;5046248;28;20122;-71
2023/07/25 05:33:39;;;;;;;1999.90;999.90;;;;;;;23.99;44.93;100808.59;5036351;28;20479;-71
2023/07/25 05:36:05;;;;;;;1999.90;999.90;;;;;;;23.95;44.94;100799.06;5031362;28;20048;-70
2023/07/25 05:38:30;;;;;;;1999.90;999.90;;;;;;;24.39;44.00;100794.34;5048759;28;20547;-70
2023/07/25 05:40:56;;;;;;;1999.90;999.90;;;;;;;23.96;44.23;100791.91;5049302;28;20087;-71
2023/07/25 05:43:22;;;;;;;1999.90;999.90;;;;;;;23.44;44.76;100796.19;5030752;28;20476;-71
2023/07/25 05:45:48;;;;;;;1999.90;999.90;;;;;;;23.62;43.84;100794.16;5028460;28;20039;-71
2023/07/25 05:48:13;;;;;;;1999.90;999.90;;;;;;;23.92;44.17;100799.28;5050098;28;20023;-70
2023/07/25 05:50:38;;;;;;;1999.90;999.90;;;;;;;23.91;43.76;100807.41;5030812;28;20464;-71
2023/07/25 05:53:04;;;;;;;1999.90;999.90;;;;;;;23.77;43.28;100805.59;5049037;28;20060;-71
2023/07/25 05:55:29;;;;;;;1999.90;999.90;;;;;;;23.76;43.43;100812.75;5049691;28;20368;-70
2023/07/25 05:57:55;;;;;;;1999.90;999.90;;;;;;;23.77;42.76;100809.13;5065565;28;20052;-71
2023/07/25 06:00:20;;;;;;;1999.90;999.90;;;;;;;23.19;44.06;100806.63;5068831;28;20032;-71
2023/07/25 06:02:46;;;;;;;1999.90;999.90;;;;;;;23.26;43.81;100809.75;5069315;28;20048;-70
2023/07/25 06:05:11;;;;;;;1999.90;999.90;;;;;;;24.18;42.22;100813.56;5067678;28;20077;-71
2023/07/25 06:07:37;;;;;;;1999.90;999.90;;;;;;;23.64;42.17;100808.22;5067634;28;20066;-70
2023/07/25 06:10:02;;;;;;;1999.90;999.90;;;;;;;23.26;43.21;100814.22;5068172;28;20056;-70
2023/07/25 06:12:29;;;;;;;1999.90;999.90;;;;;;;23.60;42.19;100804.03;5069258;28;20524;-70
2023/07/25 06:14:54;;;;;;;1999.90;999.90;;;;;;;23.94;41.68;100810.72;5068077;28;20032;-70
2023/07/25 06:17:19;;;;;;;1999.90;999.90;;;;;;;23.17;42.19;100805.84;5067038;28;20032;-70
2023/07/25 06:19:45;;;;;;;1999.90;999.90;;;;;;;23.23;42.57;100803.75;5068918;28;20477;-71
2023/07/25 06:22:10;;;;;;;1999.90;999.90;;;;;;;23.02;42.78;100801.47;5068212;28;20037;-71
2023/07/25 06:24:36;;;;;;;1999.90;999.90;;;;;;;23.03;42.75;100808.50;5066723;28;20089;-71
2023/07/25 06:27:01;;;;;;;1999.90;999.90;;;;;;;23.21;41.78;100799.38;5068111;28;20507;-71
2023/07/25 06:29:30;;;;;;;1999.90;999.90;;;;;;;23.06;41.90;100807.47;5068344;28;20082;-71
2023/07/25 06:31:55;;;;;;;1999.90;999.90;;;;;;;23.96;41.08;100800.81;5067028;28;20024;-70
2023/07/25 06:34:20;;;;;;;1999.90;999.90;;;;;;;23.06;41.79;100802.13;5068072;28;20081;-71
2023/07/25 06:36:46;;;;;;;1999.90;999.90;;;;;;;23.53;40.67;100807.13;5068651;28;20029;-70
2023/07/25 06:39:11;;;;;;;1999.90;999.90;;;;;;;24.46;38.78;100808.13;5067532;28;20023;-71
2023/07/25 06:41:37;;;;;;;1999.90;999.90;;;;;;;25.15;38.08;100803.28;5068673;28;20503;-70
2023/07/25 06:44:02;;;;;;;1999.90;999.90;;;;;;;27.31;34.75;100796.75;5068063;28;20107;-71
2023/07/25 06:46:28;;;;;;;1999.90;999.90;;;;;;;26.25;35.07;100797.91;5066830;28;20017;-70
2023/07/25 06:48:54;;;;;;;1999.90;999.90;;;;;;;26.37;33.99;100796.13;5068671;28;20401;-71
2023/07/25 06:51:20;;;;;;;1999.90;999.90;;;;;;;27.81;32.87;100796.28;5084774;28;20020;-71
2023/07/25 06:53:45;;;;;;;1999.90;999.90;;;;;;;30.03;31.50;100799.34;5066417;28;20074;-71
2023/07/25 06:56:11;;;;;;;1999.90;999.90;;;;;;;29.26;31.01;100805.38;5067621;28;20056;-71
2023/07/25 06:58:36;;;;;;;1999.90;999.90;;;;;;;29.16;30.96;100812.50;5067306;28;20124;-71
2023/07/25 07:01:02;;;;;;;1999.90;999.90;;;;;;;30.23;29.99;100806.41;5067115;28;20028;-71
2023/07/25 07:03:28;;;;;;;1999.90;999.90;;;;;;;28.58;30.57;100808.56;5067767;28;20038;-71
2023/07/25 07:05:54;;;;;;;1999.90;999.90;;;;;;;28.85;30.98;100820.63;5067154;28;20033;-71
2023/07/25 07:08:20;;;;;;;1999.90;999.90;;;;;;;27.51;32.75;100807.72;5067165;28;20026;-71
2023/07/25 07:10:46;;;;;;;1999.90;999.90;;;;;;;27.31;33.46;100822.72;5066922;28;20025;-71
2023/07/25 07:13:11;;;;;;;1999.90;999.90;;;;;;;25.54;35.44;100820.13;5069110;28;20358;-71
2023/07/25 07:15:37;;;;;;;1999.90;999.90;;;;;;;26.11;35.28;100817.72;5066266;28;20029;-70
2023/07/25 07:18:02;;;;;;;1999.90;999.90;;;;;;;25.70;35.91;100818.97;5067443;28;20446;-71
2023/07/25 07:20:27;;;;;;;1999.90;999.90;;;;;;;25.32;36.36;100817.25;5066859;28;20448;-71
2023/07/25 07:22:53;;;;;;;1999.90;999.90;;;;;;;27.60;34.96;100815.00;5067242;28;20089;-71
2023/07/25 07:25:18;;;;;;;1999.90;999.90;;;;;;;28.23;32.76;100804.41;5068852;28;20025;-71
2023/07/25 07:27:44;;;;;;;1999.90;999.90;;;;;;;28.04;32.77;100809.63;5066184;28;20315;-71
2023/07/25 07:30:09;;;;;;;1999.90;999.90;;;;;;;27.00;34.56;100812.66;5067604;28;20077;-70
2023/07/25 07:32:35;;;;;;;1999.90;999.90;;;;;;;26.84;33.82;100813.00;5066749;28;20055;-69
2023/07/25 07:35:00;;;;;;;1999.90;999.90;;;;;;;25.29;35.66;100815.66;5068312;28;20056;-71
2023/07/25 07:37:26;;;;;;;1999.90;999.90;;;;;;;27.37;34.11;100812.38;5067002;28;20024;-71
2023/07/25 07:39:51;;;;;;;1999.90;999.90;;;;;;;27.84;31.83;100808.59;5066754;28;20106;-71
2023/07/25 07:42:17;;;;;;;1999.90;999.90;;;;;;;28.18;31.40;100812.00;5067035;28;20369;-71
2023/07/25 07:44:42;;;;;;;1999.90;999.90;;;;;;;29.32;29.88;100816.53;5067915;28;20028;-71
2023/07/25 07:47:07;;;;;;;1999.90;999.90;;;;;;;28.85;28.98;100825.13;5066999;28;20024;-72
2023/07/25 07:49:35;;;;;;;1999.90;999.90;;;;;;;29.78;29.46;100821.28;5066440;28;20373;-71
2023/07/25 07:52:01;;;;;;;1999.90;999.90;;;;;;;30.60;27.56;100819.13;5084248;28;20052;-72
2023/07/25 07:54:26;;;;;;;1999.90;999.90;;;;;;;29.96;28.30;100820.63;5067132;28;20104;-72
2023/07/25 07:56:52;;;;;;;1999.90;999.90;;;;;;;27.50;30.97;100828.31;5056664;28;20048;-72
2023/07/25 07:59:17;;;;;;;1999.90;999.90;;;;;;;27.37;30.67;100823.13;5048408;28;20050;-72
2023/07/25 08:01:43;;;;;;;1999.90;999.90;;;;;;;28.56;29.91;100826.69;5029958;28;20029;-72
2023/07/25 08:04:08;;;;;;;1999.90;999.90;;;;;;;30.07;28.58;100816.91;5046240;28;20180;-71
2023/07/25 08:06:37;;;;;;;1999.90;999.90;;;;;;;30.85;27.22;100819.47;5029940;28;20025;-73
2023/07/25 08:09:02;;;;;;;1999.90;999.90;;;;;;;30.25;27.86;100826.00;5032616;28;20044;-71
2023/07/25 08:11:28;;;;;;;1999.90;999.90;;;;;;;29.08;28.95;100833.88;5051108;28;20025;-72
2023/07/25 08:13:53;;;;;;;1999.90;999.90;;;;;;;28.13;30.58;100830.34;5051775;28;20033;-72
2023/07/25 08:16:19;;;;;;;1999.90;999.90;;;;;;;27.76;30.04;100833.38;5052458;28;20025;-72
2023/07/25 08:18:44;;;;;;;1999.90;999.90;;;;;;;27.31;31.29;100839.66;5032645;28;20036;-71
2023/07/25 08:21:09;;;;;;;1999.90;999.90;;;;;;;26.30;31.81;100843.97;5033805;28;20115;-71
2023/07/25 08:23:35;;;;;;;1999.90;999.90;;;;;;;25.67;32.65;100844.16;5033090;28;20037;-72
2023/07/25 08:26:00;;;;;;;1999.90;999.90;;;;;;;28.00;31.55;100843.97;5032858;28;20029;-72
2023/07/25 08:28:26;;;;;;;1999.90;999.90;;;;;;;29.26;28.09;100840.34;5033714;28;20500;-71
2023/07/25 08:31:01;;;;;;;1999.90;999.90;;;;;;;30.19;26.78;100831.09;5050115;28;20385;-72
2023/07/25 08:33:31;;;;;;;1999.90;999.90;;;;;;;31.53;26.86;100836.31;5033415;28;20041;-72
2023/07/25 08:35:57;;;;;;;1999.90;999.90;;;;;;;31.63;25.44;100847.94;5051009;28;20029;-72
2023/07/25 08:38:23;;;;;;;1999.90;999.90;;;;;;;30.35;26.27;100846.66;5033009;28;20036;-72
2023/07/25 08:41:00;;;;;;;1999.90;999.90;;;;;;;28.71;28.48;100853.22;5051267;28;20025;-72
2023/07/25 08:43:31;;;;;;;1999.90;999.90;;;;;;;27.20;30.49;100859.34;5034022;28;20033;-72
2023/07/25 08:45:58;;;;;;;1999.90;999.90;;;;;;;27.88;30.47;100859.22;5032370;28;20036;-72
2023/07/25 08:48:26;;;;;;;1999.90;999.90;;;;;;;28.89;29.25;100859.72;5033595;28;20478;-72
2023/07/25 08:50:56;;;;;;;1999.90;999.90;;;;;;;30.23;27.72;100862.16;5033031;28;20036;-72
2023/07/25 08:53:23;;;;;;;1999.90;999.90;;;;;;;30.31;26.64;100872.22;5051454;28;20036;-72
2023/07/25 08:55:50;;;;;;;1999.90;999.90;;;;;;;31.33;25.76;100868.00;5032365;28;20104;-72
2023/07/25 08:58:16;;;;;;;1999.90;999.90;;;;;;;31.77;24.96;100870.88;5033501;28;20023;-72
2023/07/25 09:00:43;;;;;;;1999.90;999.90;;;;;;;30.92;25.23;100874.53;5049812;28;20098;-72
2023/07/25 09:03:08;;;;;;;1999.90;999.90;;;;;;;32.00;24.62;100859.59;5033263;28;20079;-72
2023/07/25 09:05:37;;;;;;;1999.90;999.90;;;;;;;31.16;25.15;100872.34;5050469;28;20025;-72
2023/07/25 09:08:02;;;;;;;1999.90;999.90;;;;;;;29.65;27.21;100865.63;5032318;28;20060;-72
2023/07/25 09:10:29;;;;;;;1999.90;999.90;;;;;;;29.06;27.89;100886.97;5032938;28;20095;-72
2023/07/25 09:12:54;;;;;;;1999.90;999.90;;;;;;;29.10;28.37;100885.72;5050107;28;20074;-71
2023/07/25 09:15:20;;;;;;;1999.90;999.90;;;;;;;26.80;30.73;100889.28;5051032;28;20112;-72
2023/07/25 09:17:45;;;;;;;1999.90;999.90;;;;;;;26.68;31.62;100895.56;5032271;28;20040;-72
2023/07/25 09:20:12;;;;;;;1999.90;999.90;;;;;;;27.17;31.08;100891.75;5050630;28;20033;-72
2023/07/25 09:22:38;;;;;;;1999.90;999.90;;;;;;;26.79;30.16;100892.09;5050182;28;20024;-72
2023/07/25 09:25:08;;;;;;;1999.90;999.90;;;;;;;26.99;30.32;100893.22;5050489;28;20027;-72
2023/07/25 09:27:36;;;;;;;1999.90;999.90;;;;;;;27.39;30.28;100896.28;5031950;28;20025;-72
2023/07/25 09:30:11;;;;;;;1999.90;999.90;;;;;;;28.21;28.40;100903.09;5032914;28;20035;-73
2023/07/25 09:32:37;;;;;;;1999.90;999.90;;;;;;;27.48;28.88;100902.75;5031989;28;20029;-72
2023/07/25 09:35:06;;;;;;;1999.90;999.90;;;;;;;26.81;30.40;100901.72;5032395;28;20021;-72
2023/07/25 09:37:32;;;;;;;1999.90;999.90;;;;;;;27.43;30.21;100907.63;5050257;28;20434;-72
2023/07/25 09:39:58;;;;;;;1999.90;999.90;;;;;;;29.00;27.00;100909.03;5031882;28;20078;-72
2023/07/25 09:42:24;;;;;;;1999.90;999.90;;;;;;;29.46;26.63;100913.06;5050025;28;20029;-72
2023/07/25 09:44:51;;;;;;;1999.90;999.90;;;;;;;29.58;26.84;100911.97;5032016;28;20032;-72
2023/07/25 09:47:22;;;;;;;1999.90;999.90;;;;;;;28.15;28.22;100911.69;5032678;28;20036;-73
2023/07/25 09:49:48;;;;;;;1999.90;999.90;;;;;;;28.19;29.94;100923.88;5030676;28;20115;-72
2023/07/25 09:52:14;;;;;;;1999.90;999.90;;;;;;;28.32;28.18;100914.78;5049988;28;20178;-72
2023/07/25 09:54:40;;;;;;;1999.90;999.90;;;;;;;28.20;28.44;100912.13;5031498;28;20090;-71
2023/07/25 09:57:07;;;;;;;1999.90;999.90;;;;;;;27.71;28.89;100916.13;5031205;28;20041;-72
2023/07/25 09:59:34;;;;;;;1999.90;999.90;;;;;;;27.82;27.26;100913.44;5049641;28;20024;-72
2023/07/25 10:02:00;;;;;;;1999.90;999.90;;;;;;;29.67;26.48;100917.53;5032020;28;20477;-72
2023/07/25 10:04:26;;;;;;;1999.90;999.90;;;;;;;30.34;26.60;100928.56;5049347;28;20087;-72
2023/07/25 10:06:52;;;;;;;1999.90;999.90;;;;;;;30.32;25.14;100919.75;5031473;28;20043;-72
2023/07/25 10:09:18;;;;;;;1999.90;999.90;;;;;;;28.86;25.08;100929.03;5031240;28;20039;-72
2023/07/25 10:11:46;;;;;;;1999.90;999.90;;;;;;;29.20;26.16;100926.97;5049108;28;20428;-71
2023/07/25 10:14:12;;;;;;;1999.90;999.90;;;;;;;29.34;26.38;100936.53;5049674;28;20025;-72
2023/07/25 10:16:38;;;;;;;1999.90;999.90;;;;;;;27.21;28.99;100930.78;5030370;28;20384;-72
2023/07/25 10:19:05;;;;;;;1999.90;999.90;;;;;;;27.19;29.29;100932.75;5032004;28;20115;-72
2023/07/25 10:21:49;;;;;;;1999.90;999.90;;;;;;;27.79;28.91;100932.47;5031355;28;20028;-70
2023/07/25 10:24:15;;;;;;;1999.90;999.90;;;;;;;27.46;29.21;100928.84;5048651;28;20040;-72
2023/07/25 10:26:58;;;;;;;1999.90;999.90;;;;;;;27.97;28.76;100921.22;5048615;28;20035;-71
2023/07/25 10:29:36;;;;;;;1999.90;999.90;;;;;;;28.17;28.86;100927.66;5031796;28;20082;-72
2023/07/25 10:32:02;;;;;;;1999.90;999.90;;;;;;;27.52;29.60;100933.75;5030197;28;20432;-72
2023/07/25 10:35:00;;;;;;;1999.90;999.90;;;;;;;27.45;29.67;100937.91;5048941;28;20020;-71
2023/07/25 10:37:35;;;;;;;1999.90;999.90;;;;;;;27.98;28.60;100922.94;5048571;28;20472;-72
2023/07/25 10:40:11;;;;;;;1999.90;999.90;;;;;;;28.12;29.35;100933.41;5049500;28;20029;-72
2023/07/25 10:42:51;;;;;;;1999.90;999.90;;;;;;;28.13;29.23;100943.16;5048738;28;20029;-71